createdAt,value
2023-07-05T00:00:00.046Z,109.8
2023-07-05T00:01:00.092Z,109.7
2023-07-05T00:02:00.155Z,109.8
2023-07-05T00:02:59.105Z,109.8
2023-07-05T00:03:59.168Z,110.4
2023-07-05T00:04:59.134Z,110.4
2023-07-05T00:05:59.165Z,110.2
2023-07-05T00:06:59.195Z,110.3
2023-07-05T00:07:59.201Z,110
2023-07-05T00:08:59.226Z,110.2
2023-07-05T00:09:59.242Z,110
2023-07-05T00:10:59.279Z,110
2023-07-05T00:11:59.283Z,110.3
2023-07-05T00:12:59.310Z,110.2
2023-07-05T00:13:59.422Z,109.9
2023-07-05T00:14:59.359Z,110
2023-07-05T00:15:59.397Z,110.1
2023-07-05T00:16:59.367Z,109.6
2023-07-05T00:17:59.541Z,110.1
2023-07-05T00:18:59.408Z,110
2023-07-05T00:19:59.415Z,109.3
2023-07-05T00:20:59.411Z,109.7
2023-07-05T00:21:59.425Z,109.8
2023-07-05T00:22:59.443Z,109.8
2023-07-05T00:23:59.455Z,109.4
2023-07-05T00:24:59.493Z,109.6
2023-07-05T00:25:59.516Z,110.1
2023-07-05T00:26:59.551Z,109.8
2023-07-05T00:27:59.595Z,109.8
2023-07-05T00:28:59.585Z,109.9
2023-07-05T00:29:59.777Z,109.6
2023-07-05T00:30:59.633Z,109.1
2023-07-05T00:31:59.702Z,109.3
2023-07-05T00:32:59.689Z,109.6
2023-07-05T00:33:59.697Z,109.4
2023-07-05T00:34:59.711Z,109.3
2023-07-05T00:35:59.740Z,109.1
2023-07-05T00:36:59.750Z,109.6
2023-07-05T00:37:59.764Z,109.5
2023-07-05T00:38:59.789Z,108.9
2023-07-05T00:39:59.804Z,108.6
2023-07-05T00:40:59.832Z,109
2023-07-05T00:41:59.825Z,109.1
2023-07-05T00:42:59.820Z,109.2
2023-07-05T00:43:59.918Z,109.8
2023-07-05T00:44:59.828Z,109.8
2023-07-05T00:46:00.011Z,110
2023-07-05T00:46:59.878Z,109.7
2023-07-05T00:47:59.942Z,110
2023-07-05T00:48:59.925Z,110.2
2023-07-05T00:49:59.944Z,110.3
2023-07-05T00:51:00.001Z,110.3
2023-07-05T00:51:59.991Z,110.3
2023-07-05T00:53:00.017Z,110.3
2023-07-05T00:54:00.044Z,109.9
2023-07-05T00:55:00.064Z,110.3
2023-07-05T00:56:00.095Z,110.5
2023-07-05T00:56:59.116Z,110.9
2023-07-05T00:57:59.117Z,110.8
2023-07-05T00:58:59.153Z,111.5
2023-07-05T00:59:59.142Z,110.8
2023-07-05T01:00:59.193Z,110.6
2023-07-05T01:02:03.388Z,110.6
2023-07-05T01:02:59.281Z,110.7
2023-07-05T01:03:59.194Z,111.9
2023-07-05T01:04:59.227Z,111.9
2023-07-05T01:05:59.209Z,112.4
2023-07-05T01:06:59.216Z,111.9
2023-07-05T01:07:59.245Z,112.3
2023-07-05T01:08:59.266Z,112.1
2023-07-05T01:09:59.323Z,112.2
2023-07-05T01:10:59.327Z,112.1
2023-07-05T01:11:59.323Z,112.8
2023-07-05T01:12:59.352Z,112.9
2023-07-05T01:13:59.428Z,113
2023-07-05T01:14:59.416Z,113.5
2023-07-05T01:15:59.457Z,114.1
2023-07-05T01:16:59.459Z,113.9
2023-07-05T01:17:59.500Z,113.4
2023-07-05T01:18:59.468Z,113.5
2023-07-05T01:19:59.472Z,113.5
2023-07-05T01:20:59.522Z,113.5
2023-07-05T01:21:59.521Z,114.2
2023-07-05T01:22:59.529Z,114
2023-07-05T01:23:59.524Z,113.7
2023-07-05T01:24:59.524Z,114.3
2023-07-05T01:25:59.535Z,114.4
2023-07-05T01:26:59.542Z,114.6
2023-07-05T01:27:59.586Z,114.2
2023-07-05T01:28:59.596Z,114.4
2023-07-05T01:29:59.643Z,114.5
2023-07-05T01:30:59.699Z,114.7
2023-07-05T01:31:59.677Z,115.4
2023-07-05T01:32:59.809Z,115.4
2023-07-05T01:33:59.719Z,115.3
2023-07-05T01:34:59.752Z,114.4
2023-07-05T01:35:59.792Z,115
2023-07-05T01:36:59.800Z,115.2
2023-07-05T01:37:59.828Z,115.1
2023-07-05T01:38:59.857Z,115.2
2023-07-05T01:39:59.867Z,115.1
2023-07-05T01:40:59.899Z,115.6
2023-07-05T01:41:59.890Z,115.7
2023-07-05T01:42:59.924Z,115.7
2023-07-05T01:43:59.929Z,115.6
2023-07-05T01:44:59.935Z,115.4
2023-07-05T01:45:59.966Z,115.2
2023-07-05T01:47:00.129Z,115.1
2023-07-05T01:47:59.973Z,115.4
2023-07-05T01:49:00.019Z,115
2023-07-05T01:49:59.990Z,116.5
2023-07-05T01:51:00.027Z,116
2023-07-05T01:52:00.009Z,116.2
2023-07-05T01:53:00.031Z,116.2
2023-07-05T01:54:00.053Z,116.3
2023-07-05T01:55:00.094Z,116.2
2023-07-05T01:55:59.112Z,116.1
2023-07-05T01:56:59.171Z,116.3
2023-07-05T01:57:59.163Z,116.5
2023-07-05T01:58:59.184Z,116.4
2023-07-05T01:59:59.206Z,116.7
2023-07-05T02:00:59.268Z,117
2023-07-05T02:01:59.320Z,117.3
2023-07-05T02:02:59.326Z,117.4
2023-07-05T02:03:59.290Z,117.4
2023-07-05T02:04:59.303Z,117.4
2023-07-05T02:05:59.341Z,116.8
2023-07-05T02:06:59.328Z,118
2023-07-05T02:07:59.338Z,119
2023-07-05T02:08:59.352Z,118.9
2023-07-05T02:09:59.356Z,118.7
2023-07-05T02:10:59.396Z,118.1
2023-07-05T02:11:59.393Z,118.1
2023-07-05T02:12:59.392Z,118.2
2023-07-05T02:13:59.517Z,117.7
2023-07-05T02:14:59.422Z,117.3
2023-07-05T02:15:59.450Z,117.4
2023-07-05T02:16:59.473Z,117.1
2023-07-05T02:17:59.593Z,117
2023-07-05T02:18:59.515Z,116.6
2023-07-05T02:19:59.586Z,116.7
2023-07-05T02:20:59.565Z,116.2
2023-07-05T02:21:59.596Z,116.1
2023-07-05T02:23:01.084Z,116.7
2023-07-05T02:23:59.630Z,116.3
2023-07-05T02:24:59.663Z,116.6
2023-07-05T02:25:59.678Z,116.7
2023-07-05T02:26:59.688Z,116.7
2023-07-05T02:27:59.714Z,117.1
2023-07-05T02:28:59.708Z,116.6
2023-07-05T02:29:59.735Z,116.7
2023-07-05T02:30:59.793Z,116.4
2023-07-05T02:31:59.749Z,116.3
2023-07-05T02:32:59.785Z,116.7
2023-07-05T02:33:59.757Z,116.1
2023-07-05T02:34:59.757Z,115.6
2023-07-05T02:35:59.769Z,115.9
2023-07-05T02:36:59.797Z,115.7
2023-07-05T02:37:59.816Z,116.2
2023-07-05T02:38:59.846Z,116.7
2023-07-05T02:39:59.873Z,115.8
2023-07-05T02:40:59.895Z,116.6
2023-07-05T02:41:59.980Z,116
2023-07-05T02:42:59.952Z,116
2023-07-05T02:43:59.970Z,115.9
2023-07-05T02:44:59.999Z,116.2
2023-07-05T02:46:00.062Z,116.6
2023-07-05T02:47:00.021Z,116.4
2023-07-05T02:48:00.124Z,116.3
2023-07-05T02:49:00.053Z,116.7
2023-07-05T02:50:00.047Z,116.2
2023-07-05T02:51:00.066Z,116.2
2023-07-05T02:52:00.084Z,116.4
2023-07-05T02:53:00.079Z,116.1
2023-07-05T02:54:00.083Z,116.7
2023-07-05T02:55:00.086Z,116
2023-07-05T02:55:59.096Z,116.4
2023-07-05T02:56:59.139Z,116.4
2023-07-05T02:57:59.153Z,116.5
2023-07-05T02:58:59.177Z,116.2
2023-07-05T02:59:59.192Z,116.3
2023-07-05T03:00:59.215Z,116.4
2023-07-05T03:01:59.411Z,116
2023-07-05T03:02:59.291Z,116.2
2023-07-05T03:03:59.281Z,116.6
2023-07-05T03:04:59.307Z,116.1
2023-07-05T03:05:59.306Z,116.2
2023-07-05T03:06:59.334Z,116.7
2023-07-05T03:07:59.333Z,116.8
2023-07-05T03:08:59.347Z,116.2
2023-07-05T03:09:59.373Z,116.4
2023-07-05T03:10:59.379Z,117.1
2023-07-05T03:11:59.378Z,116.7
2023-07-05T03:12:59.406Z,116.7
2023-07-05T03:13:59.638Z,116.3
2023-07-05T03:14:59.408Z,116
2023-07-05T03:15:59.487Z,116.6
2023-07-05T03:16:59.589Z,116.6
2023-07-05T03:17:59.531Z,116.7
2023-07-05T03:18:59.508Z,117.1
2023-07-05T03:19:59.528Z,116.6
2023-07-05T03:20:59.557Z,116.7
2023-07-05T03:21:59.569Z,117
2023-07-05T03:22:59.604Z,117.1
2023-07-05T03:23:59.651Z,116.9
2023-07-05T03:24:59.656Z,116.7
2023-07-05T03:25:59.672Z,116.5
2023-07-05T03:26:59.684Z,116.5
2023-07-05T03:27:59.717Z,116.5
2023-07-05T03:28:59.751Z,116.5
2023-07-05T03:29:59.748Z,116.7
2023-07-05T03:30:59.769Z,116.8
2023-07-05T03:31:59.859Z,116.7
2023-07-05T03:32:59.843Z,117
2023-07-05T03:33:59.799Z,116.7
2023-07-05T03:35:01.371Z,117.2
2023-07-05T03:35:59.812Z,116.4
2023-07-05T03:36:59.842Z,116.2
2023-07-05T03:37:59.826Z,116.9
2023-07-05T03:38:59.848Z,116.1
2023-07-05T03:39:59.874Z,116.6
2023-07-05T03:40:59.903Z,116.1
2023-07-05T03:41:59.937Z,116.9
2023-07-05T03:42:59.963Z,116.6
2023-07-05T03:43:59.976Z,116.3
2023-07-05T03:44:59.984Z,116.5
2023-07-05T03:46:00.065Z,116.7
2023-07-05T03:47:00.042Z,116.5
2023-07-05T03:48:00.081Z,116.1
2023-07-05T03:49:00.079Z,115.8
2023-07-05T03:49:59.085Z,115.9
2023-07-05T03:50:59.105Z,116.1
2023-07-05T03:51:59.119Z,116.5
2023-07-05T03:52:59.126Z,117
2023-07-05T03:53:59.136Z,117
2023-07-05T03:54:59.148Z,117.2
2023-07-05T03:55:59.154Z,116.9
2023-07-05T03:56:59.166Z,116.9
2023-07-05T03:57:59.170Z,116.4
2023-07-05T03:58:59.182Z,117.3
2023-07-05T03:59:59.198Z,117
2023-07-05T04:00:59.256Z,116.8
2023-07-05T04:01:59.246Z,116.8
2023-07-05T04:02:59.310Z,117.6
2023-07-05T04:03:59.521Z,117.8
2023-07-05T04:04:59.320Z,117.2
2023-07-05T04:05:59.342Z,117.5
2023-07-05T04:06:59.361Z,117.3
2023-07-05T04:07:59.377Z,117.5
2023-07-05T04:08:59.404Z,117.4
2023-07-05T04:09:59.419Z,117.4
2023-07-05T04:10:59.463Z,116.7
2023-07-05T04:11:59.455Z,116.7
2023-07-05T04:12:59.465Z,117.2
2023-07-05T04:13:59.721Z,116.9
2023-07-05T04:14:59.483Z,116.7
2023-07-05T04:15:59.590Z,117.5
2023-07-05T04:16:59.492Z,117.2
2023-07-05T04:17:59.549Z,117.7
2023-07-05T04:18:59.513Z,118.1
2023-07-05T04:19:59.548Z,117.9
2023-07-05T04:20:59.570Z,118
2023-07-05T04:21:59.608Z,117.9
2023-07-05T04:22:59.664Z,117.9
2023-07-05T04:23:59.675Z,117
2023-07-05T04:24:59.686Z,117.5
2023-07-05T04:25:59.713Z,117.9
2023-07-05T04:26:59.725Z,118.6
2023-07-05T04:27:59.744Z,118.5
2023-07-05T04:28:59.769Z,117.9
2023-07-05T04:29:59.788Z,118.1
2023-07-05T04:30:59.926Z,118.1
2023-07-05T04:31:59.838Z,117.9
2023-07-05T04:32:59.864Z,118.6
2023-07-05T04:34:00.006Z,118.1
2023-07-05T04:34:59.878Z,119.5
2023-07-05T04:35:59.921Z,118.8
2023-07-05T04:36:59.913Z,118.7
2023-07-05T04:37:59.932Z,118.7
2023-07-05T04:38:59.933Z,118.9
2023-07-05T04:40:00.649Z,119.3
2023-07-05T04:40:59.962Z,118.9
2023-07-05T04:41:59.951Z,118.9
2023-07-05T04:42:59.970Z,117.7
2023-07-05T04:43:59.990Z,117.6
2023-07-05T04:45:00.042Z,118.6
2023-07-05T04:46:00.072Z,118.6
2023-07-05T04:47:00.078Z,118.7
2023-07-05T04:48:00.128Z,118.7
2023-07-05T04:48:59.096Z,118.1
2023-07-05T04:49:59.128Z,118.2
2023-07-05T04:50:59.179Z,117.9
2023-07-05T04:51:59.169Z,117.5
2023-07-05T04:52:59.186Z,117.4
2023-07-05T04:53:59.200Z,118.7
2023-07-05T04:54:59.219Z,119
2023-07-05T04:55:59.236Z,118.6
2023-07-05T04:56:59.244Z,118.5
2023-07-05T04:57:59.249Z,118.7
2023-07-05T04:58:59.256Z,119.5
2023-07-05T04:59:59.259Z,119.2
2023-07-05T05:00:59.607Z,119.4
2023-07-05T05:01:59.334Z,119.9
2023-07-05T05:03:00.996Z,118.8
2023-07-05T05:03:59.343Z,118.4
2023-07-05T05:04:59.362Z,118.7
2023-07-05T05:05:59.379Z,118.5
2023-07-05T05:06:59.390Z,118.7
2023-07-05T05:07:59.411Z,119.9
2023-07-05T05:08:59.440Z,119.3
2023-07-05T05:09:59.469Z,119
2023-07-05T05:10:59.475Z,118.6
2023-07-05T05:11:59.494Z,119.2
2023-07-05T05:12:59.500Z,119
2023-07-05T05:13:59.551Z,119.7
2023-07-05T05:14:59.543Z,119.4
2023-07-05T05:15:59.585Z,119.7
2023-07-05T05:16:59.591Z,119
2023-07-05T05:17:59.594Z,118.4
2023-07-05T05:18:59.582Z,118.2
2023-07-05T05:19:59.562Z,118.8
2023-07-05T05:20:59.618Z,119
2023-07-05T05:21:59.622Z,119.7
2023-07-05T05:22:59.681Z,119.2
2023-07-05T05:23:59.671Z,119.7
2023-07-05T05:24:59.697Z,119
2023-07-05T05:25:59.710Z,119.2
2023-07-05T05:26:59.746Z,119
2023-07-05T05:27:59.755Z,119
2023-07-05T05:28:59.770Z,118.5
2023-07-05T05:29:59.786Z,118.5
2023-07-05T05:30:59.906Z,118.5
2023-07-05T05:31:59.823Z,118.4
2023-07-05T05:32:59.867Z,118.7
2023-07-05T05:33:59.845Z,119.8
2023-07-05T05:34:59.863Z,119.9
2023-07-05T05:35:59.879Z,119.1
2023-07-05T05:36:59.885Z,119.5
2023-07-05T05:37:59.908Z,119.6
2023-07-05T05:38:59.911Z,119.5
2023-07-05T05:39:59.906Z,119.6
2023-07-05T05:40:59.910Z,119.2
2023-07-05T05:41:59.940Z,120.2
2023-07-05T05:42:59.963Z,120.6
2023-07-05T05:43:59.995Z,120.4
2023-07-05T05:45:00.023Z,120.5
2023-07-05T05:46:00.053Z,120.4
2023-07-05T05:47:00.171Z,120.5
2023-07-05T05:48:00.130Z,120.5
2023-07-05T05:48:59.104Z,120.3
2023-07-05T05:49:59.129Z,120.3
2023-07-05T05:50:59.154Z,120.3
2023-07-05T05:51:59.184Z,121
2023-07-05T05:52:59.218Z,120.7
2023-07-05T05:53:59.240Z,120.5
2023-07-05T05:54:59.254Z,120.8
2023-07-05T05:55:59.266Z,121.4
2023-07-05T05:56:59.275Z,121.1
2023-07-05T05:57:59.284Z,121.5
2023-07-05T05:58:59.317Z,121.5
2023-07-05T05:59:59.329Z,121.4
2023-07-05T06:00:59.344Z,121.4
2023-07-05T06:01:59.374Z,121.6
2023-07-05T06:02:59.434Z,121.6
2023-07-05T06:03:59.424Z,122.4
2023-07-05T06:04:59.377Z,121.7
2023-07-05T06:05:59.393Z,122
2023-07-05T06:06:59.417Z,121.6
2023-07-05T06:07:59.446Z,121.9
2023-07-05T06:08:59.480Z,122.1
2023-07-05T06:09:59.521Z,122.3
2023-07-05T06:10:59.524Z,121.7
2023-07-05T06:11:59.551Z,121.8
2023-07-05T06:12:59.573Z,123
2023-07-05T06:13:59.699Z,122.6
2023-07-05T06:14:59.619Z,123
2023-07-05T06:16:13.048Z,123.3
2023-07-05T06:16:59.698Z,122.6
2023-07-05T06:17:59.782Z,123
2023-07-05T06:18:59.690Z,122.5
2023-07-05T06:19:59.748Z,121.7
2023-07-05T06:20:59.714Z,121.5
2023-07-05T06:21:59.733Z,121.5
2023-07-05T06:22:59.739Z,121.8
2023-07-05T06:23:59.747Z,122
2023-07-05T06:24:59.762Z,122.3
2023-07-05T06:25:59.770Z,122.5
2023-07-05T06:26:59.784Z,122.8
2023-07-05T06:27:59.770Z,122.5
2023-07-05T06:28:59.827Z,122.7
2023-07-05T06:29:59.829Z,122.8
2023-07-05T06:30:59.894Z,122.8
2023-07-05T06:31:59.873Z,122.8
2023-07-05T06:32:59.948Z,122.9
2023-07-05T06:33:59.934Z,123.5
2023-07-05T06:34:59.934Z,123.3
2023-07-05T06:35:59.958Z,122.9
2023-07-05T06:36:59.978Z,123.5
2023-07-05T06:38:00.012Z,123.2
2023-07-05T06:39:00.032Z,123.1
2023-07-05T06:40:00.070Z,123.6
2023-07-05T06:41:00.080Z,123
2023-07-05T06:42:00.073Z,123.8
2023-07-05T06:42:59.083Z,123.5
2023-07-05T06:43:59.096Z,124
2023-07-05T06:44:59.142Z,123.2
2023-07-05T06:45:59.160Z,123.1
2023-07-05T06:46:59.116Z,123.6
2023-07-05T06:47:59.183Z,123.6
2023-07-05T06:48:59.155Z,123.6
2023-07-05T06:49:59.162Z,123.6
2023-07-05T06:50:59.182Z,123.6
2023-07-05T06:51:59.200Z,123.7
2023-07-05T06:53:22.858Z,122.6
2023-07-05T06:53:59.255Z,123.1
2023-07-05T06:54:59.288Z,123.3
2023-07-05T06:55:59.307Z,125.2
2023-07-05T06:56:59.335Z,125.1
2023-07-05T06:57:59.366Z,126.5
2023-07-05T06:58:59.385Z,125.9
2023-07-05T06:59:59.401Z,126.6
2023-07-05T07:00:59.425Z,125.3
2023-07-05T07:01:59.497Z,124.5
2023-07-05T07:02:59.514Z,124.6
2023-07-05T07:03:59.510Z,125.1
2023-07-05T07:04:59.498Z,124.8
2023-07-05T07:05:59.542Z,125.6
2023-07-05T07:06:59.515Z,125.8
2023-07-05T07:07:59.525Z,126.7
2023-07-05T07:08:59.546Z,127.6
2023-07-05T07:09:59.554Z,128
2023-07-05T07:10:59.559Z,128.4
2023-07-05T07:11:59.572Z,129.2
2023-07-05T07:12:59.578Z,130.6
2023-07-05T07:13:59.644Z,132.4
2023-07-05T07:14:59.630Z,132.1
2023-07-05T07:15:59.672Z,131.7
2023-07-05T07:16:59.672Z,132.3
2023-07-05T07:17:59.801Z,132.8
2023-07-05T07:18:59.756Z,132.8
2023-07-05T07:19:59.784Z,131.8
2023-07-05T07:20:59.782Z,132.6
2023-07-05T07:21:59.805Z,132.5
2023-07-05T07:22:59.834Z,133.3
2023-07-05T07:23:59.918Z,132.8
2023-07-05T07:25:01.462Z,133.8
2023-07-05T07:25:59.902Z,134.3
2023-07-05T07:26:59.919Z,134.3
2023-07-05T07:27:59.942Z,133.3
2023-07-05T07:28:59.955Z,133.4
2023-07-05T07:29:59.978Z,133.7
2023-07-05T07:30:59.983Z,133.6
2023-07-05T07:31:59.996Z,133.5
2023-07-05T07:33:00.104Z,133.9
2023-07-05T07:33:59.999Z,133.7
2023-07-05T07:35:00.041Z,133.9
2023-07-05T07:36:00.031Z,134.3
2023-07-05T07:37:00.082Z,135
2023-07-05T07:37:59.097Z,135.7
2023-07-05T07:38:59.117Z,135.7
2023-07-05T07:39:59.126Z,136.5
2023-07-05T07:40:59.152Z,135.6
2023-07-05T07:41:59.172Z,135.4
2023-07-05T07:42:59.200Z,135.5
2023-07-05T07:43:59.233Z,135.6
2023-07-05T07:44:59.240Z,135.8
2023-07-05T07:45:59.360Z,136.2
2023-07-05T07:46:59.265Z,136.7
2023-07-05T07:47:59.339Z,137.3
2023-07-05T07:48:59.289Z,137.1
2023-07-05T07:49:59.312Z,137.5
2023-07-05T07:50:59.312Z,137.7
2023-07-05T07:51:59.321Z,137.5
2023-07-05T07:52:59.341Z,137.7
2023-07-05T07:53:59.336Z,138.4
2023-07-05T07:54:59.362Z,138.3
2023-07-05T07:55:59.368Z,137.9
2023-07-05T07:56:59.389Z,138
2023-07-05T07:57:59.448Z,137.5
2023-07-05T07:58:59.440Z,138.2
2023-07-05T07:59:59.468Z,138.6
2023-07-05T08:00:59.491Z,138.5
2023-07-05T08:01:59.519Z,138.1
2023-07-05T08:02:59.578Z,138.5
2023-07-05T08:03:59.638Z,138.7
2023-07-05T08:04:59.710Z,138.7
2023-07-05T08:05:59.587Z,138.6
2023-07-05T08:06:59.617Z,139.2
2023-07-05T08:07:59.618Z,138.7
2023-07-05T08:08:59.642Z,139.1
2023-07-05T08:09:59.669Z,138.8
2023-07-05T08:10:59.686Z,138.4
2023-07-05T08:11:59.692Z,139.1
2023-07-05T08:12:59.698Z,139.1
2023-07-05T08:13:59.747Z,140
2023-07-05T08:14:59.704Z,139
2023-07-05T08:15:59.760Z,139.1
2023-07-05T08:16:59.760Z,138.8
2023-07-05T08:17:59.825Z,139.7
2023-07-05T08:18:59.813Z,139.1
2023-07-05T08:19:59.824Z,139.1
2023-07-05T08:20:59.876Z,139.7
2023-07-05T08:21:59.896Z,140
2023-07-05T08:22:59.888Z,140
2023-07-05T08:24:09.200Z,139.9
2023-07-05T08:24:59.920Z,140.1
2023-07-05T08:25:59.939Z,140
2023-07-05T08:26:59.970Z,141
2023-07-05T08:27:59.971Z,140.3
2023-07-05T08:28:59.996Z,140.5
2023-07-05T08:30:00.000Z,141.1
2023-07-05T08:31:00.123Z,140.5
2023-07-05T08:32:00.066Z,141.1
2023-07-05T08:33:00.084Z,142.7
2023-07-05T08:34:00.044Z,142.8
2023-07-05T08:35:00.041Z,142.9
2023-07-05T08:36:00.058Z,143.5
2023-07-05T08:37:01.078Z,143.8
2023-07-05T08:37:59.134Z,144.4
2023-07-05T08:38:59.123Z,144.8
2023-07-05T08:39:59.183Z,146.3
2023-07-05T08:40:59.185Z,145.8
2023-07-05T08:41:59.195Z,145.6
2023-07-05T08:42:59.226Z,145.6
2023-07-05T08:43:59.232Z,146
2023-07-05T08:44:59.275Z,145.6
2023-07-05T08:45:59.366Z,145.3
2023-07-05T08:46:59.292Z,144.8
2023-07-05T08:47:59.356Z,145.2
2023-07-05T08:48:59.336Z,145.7
2023-07-05T08:49:59.343Z,146.6
2023-07-05T08:51:13.238Z,146.1
2023-07-05T08:51:59.384Z,146.1
2023-07-05T08:52:59.407Z,145
2023-07-05T08:53:59.439Z,145.3
2023-07-05T08:54:59.452Z,144.7
2023-07-05T08:55:59.435Z,145
2023-07-05T08:56:59.448Z,145.7
2023-07-05T08:57:59.460Z,145.8
2023-07-05T08:58:59.487Z,145.9
2023-07-05T08:59:59.494Z,146.6
2023-07-05T09:00:59.652Z,146.3
2023-07-05T09:01:59.632Z,146.2
2023-07-05T09:02:59.657Z,145.8
2023-07-05T09:03:59.656Z,145.6
2023-07-05T09:04:59.643Z,145.1
2023-07-05T09:05:59.639Z,145.7
2023-07-05T09:06:59.659Z,145.7
2023-07-05T09:07:59.682Z,145.5
2023-07-05T09:08:59.689Z,144.9
2023-07-05T09:09:59.707Z,144.9
2023-07-05T09:11:03.085Z,144.7
2023-07-05T09:11:59.734Z,145.2
2023-07-05T09:12:59.834Z,146.2
2023-07-05T09:13:59.783Z,145.6
2023-07-05T09:14:59.769Z,145.4
2023-07-05T09:15:59.767Z,145.2
2023-07-05T09:16:59.830Z,146.1
2023-07-05T09:17:59.853Z,146.9
2023-07-05T09:18:59.802Z,146.6
2023-07-05T09:19:59.837Z,146.9
2023-07-05T09:20:59.836Z,146.9
2023-07-05T09:21:59.925Z,146.8
2023-07-05T09:22:59.893Z,147.2
2023-07-05T09:24:00.030Z,147.5
2023-07-05T09:24:59.931Z,148.3
2023-07-05T09:26:00.236Z,148.2
2023-07-05T09:26:59.975Z,148.3
2023-07-05T09:27:59.979Z,148.3
2023-07-05T09:29:00.005Z,149.1
2023-07-05T09:30:00.013Z,148.3
2023-07-05T09:31:00.160Z,148.7
2023-07-05T09:32:00.039Z,148.2
2023-07-05T09:33:00.096Z,148.2
2023-07-05T09:34:00.075Z,148.1
2023-07-05T09:35:00.165Z,149
2023-07-05T09:36:00.072Z,148.9
2023-07-05T09:37:00.077Z,148.7
2023-07-05T09:37:59.101Z,149.2
2023-07-05T09:38:59.141Z,150.8
2023-07-05T09:39:59.163Z,150.6
2023-07-05T09:40:59.175Z,150.2
2023-07-05T09:41:59.197Z,151.7
2023-07-05T09:42:59.213Z,150.9
2023-07-05T09:43:59.236Z,151.3
2023-07-05T09:44:59.256Z,150.2
2023-07-05T09:45:59.278Z,150
2023-07-05T09:46:59.442Z,150.3
2023-07-05T09:47:59.340Z,150
2023-07-05T09:48:59.328Z,150.5
2023-07-05T09:49:59.344Z,151.7
2023-07-05T09:50:59.377Z,151.9
2023-07-05T09:51:59.365Z,152
2023-07-05T09:52:59.364Z,151.9
2023-07-05T09:53:59.373Z,153.8
2023-07-05T09:54:59.380Z,153.8
2023-07-05T09:55:59.398Z,153.1
2023-07-05T09:56:59.442Z,153.2
2023-07-05T09:57:59.508Z,153.3
2023-07-05T09:58:59.478Z,154.4
2023-07-05T09:59:59.497Z,154
2023-07-05T10:00:59.522Z,153.9
2023-07-05T10:01:59.615Z,153.1
2023-07-05T10:02:59.617Z,153.1
2023-07-05T10:03:59.666Z,153.4
2023-07-05T10:04:59.602Z,154.4
2023-07-05T10:05:59.598Z,155.6
2023-07-05T10:06:59.630Z,156.5
2023-07-05T10:07:59.646Z,159.5
2023-07-05T10:08:59.643Z,160.5
2023-07-05T10:09:59.681Z,160
2023-07-05T10:10:59.669Z,161.3
2023-07-05T10:11:59.669Z,162.1
2023-07-05T10:12:59.688Z,161.4
2023-07-05T10:13:59.715Z,159.7
2023-07-05T10:14:59.712Z,161
2023-07-05T10:15:59.781Z,160.9
2023-07-05T10:16:59.878Z,162.8
2023-07-05T10:17:59.878Z,163
2023-07-05T10:18:59.820Z,163.6
2023-07-05T10:19:59.843Z,164.7
2023-07-05T10:20:59.873Z,165
2023-07-05T10:21:59.887Z,165.4
2023-07-05T10:22:59.918Z,165.2
2023-07-05T10:23:59.957Z,164.2
2023-07-05T10:24:59.956Z,164.5
2023-07-05T10:25:59.989Z,163.8
2023-07-05T10:27:00.001Z,164
2023-07-05T10:28:00.035Z,162.8
2023-07-05T10:29:00.038Z,163.1
2023-07-05T10:30:00.069Z,163.1
2023-07-05T10:31:00.071Z,164.9
2023-07-05T10:32:00.134Z,163.7
2023-07-05T10:32:59.135Z,164.5
2023-07-05T10:33:59.119Z,163.9
2023-07-05T10:34:59.116Z,163.2
2023-07-05T10:35:59.120Z,163.4
2023-07-05T10:36:59.165Z,163.6
2023-07-05T10:37:59.161Z,165.3
2023-07-05T10:38:59.177Z,166
2023-07-05T10:39:59.207Z,164.3
2023-07-05T10:40:59.250Z,164
2023-07-05T10:42:00.350Z,165.1
2023-07-05T10:42:59.279Z,166.3
2023-07-05T10:43:59.301Z,164.8
2023-07-05T10:44:59.306Z,165.8
2023-07-05T10:45:59.368Z,164.4
2023-07-05T10:46:59.359Z,164.8
2023-07-05T10:47:59.427Z,165.1
2023-07-05T10:48:59.403Z,165.5
2023-07-05T10:49:59.392Z,165.1
2023-07-05T10:50:59.406Z,165.1
2023-07-05T10:51:59.409Z,165.2
2023-07-05T10:52:59.426Z,164.8
2023-07-05T10:53:59.432Z,165.3
2023-07-05T10:54:59.433Z,165.1
2023-07-05T10:55:59.457Z,164.5
2023-07-05T10:56:59.490Z,164.8
2023-07-05T10:57:59.506Z,164.6
2023-07-05T10:58:59.528Z,165.8
2023-07-05T10:59:59.571Z,166.2
2023-07-05T11:00:59.594Z,166.6
2023-07-05T11:01:59.703Z,168.2
2023-07-05T11:02:59.674Z,169.3
2023-07-05T11:03:59.641Z,168.9
2023-07-05T11:04:59.751Z,168.6
2023-07-05T11:05:59.680Z,168.3
2023-07-05T11:06:59.703Z,168.4
2023-07-05T11:07:59.726Z,167.8
2023-07-05T11:08:59.731Z,167.7
2023-07-05T11:09:59.750Z,169.2
2023-07-05T11:10:59.747Z,167.9
2023-07-05T11:11:59.756Z,168.6
2023-07-05T11:12:59.777Z,170.8
2023-07-05T11:13:59.892Z,172
2023-07-05T11:14:59.794Z,171.7
2023-07-05T11:16:01.618Z,172.4
2023-07-05T11:16:59.844Z,172.9
2023-07-05T11:17:59.878Z,172.7
2023-07-05T11:18:59.885Z,173
2023-07-05T11:19:59.920Z,173.1
2023-07-05T11:20:59.941Z,171.4
2023-07-05T11:22:01.473Z,172.4
2023-07-05T11:23:00.131Z,172.5
2023-07-05T11:24:00.098Z,172.9
2023-07-05T11:25:00.041Z,172.9
2023-07-05T11:26:00.084Z,173.1
2023-07-05T11:26:59.094Z,172.2
2023-07-05T11:27:59.129Z,170.7
2023-07-05T11:28:59.144Z,171.3
2023-07-05T11:29:59.143Z,172.1
2023-07-05T11:30:59.476Z,174.1
2023-07-05T11:31:59.247Z,174.4
2023-07-05T11:32:59.224Z,173.6
2023-07-05T11:33:59.244Z,174.1
2023-07-05T11:34:59.224Z,174.6
2023-07-05T11:35:59.218Z,174.8
2023-07-05T11:36:59.204Z,175.1
2023-07-05T11:37:59.218Z,175.6
2023-07-05T11:38:59.255Z,174.7
2023-07-05T11:39:59.274Z,174.2
2023-07-05T11:40:59.307Z,173.9
2023-07-05T11:41:59.345Z,174.5
2023-07-05T11:42:59.350Z,173.1
2023-07-05T11:43:59.379Z,172.5
2023-07-05T11:44:59.402Z,172.2
2023-07-05T11:45:59.490Z,172
2023-07-05T11:46:59.450Z,172
2023-07-05T11:47:59.547Z,171.4
2023-07-05T11:48:59.495Z,172.2
2023-07-05T11:49:59.506Z,174.2
2023-07-05T11:50:59.519Z,174.2
2023-07-05T11:51:59.544Z,173.7
2023-07-05T11:52:59.554Z,172.7
2023-07-05T11:53:59.562Z,172.6
2023-07-05T11:54:59.585Z,172.9
2023-07-05T11:55:59.577Z,173.4
2023-07-05T11:56:59.588Z,173.8
2023-07-05T11:57:59.591Z,174.1
2023-07-05T11:58:59.600Z,173.6
2023-07-05T11:59:59.642Z,173.2
2023-07-05T12:00:59.753Z,174.9
2023-07-05T12:01:59.682Z,174.9
2023-07-05T12:02:59.921Z,174.5
2023-07-05T12:03:59.800Z,175
2023-07-05T12:04:59.772Z,177
2023-07-05T12:05:59.773Z,176.8
2023-07-05T12:06:59.815Z,177
2023-07-05T12:07:59.824Z,179.2
2023-07-05T12:08:59.848Z,179
2023-07-05T12:09:59.868Z,178.8
2023-07-05T12:10:59.930Z,179.6
2023-07-05T12:11:59.910Z,179.2
2023-07-05T12:12:59.910Z,178.9
2023-07-05T12:14:00.030Z,177.8
2023-07-05T12:14:59.940Z,177.6
2023-07-05T12:16:00.021Z,178.8
2023-07-05T12:16:59.953Z,178.5
2023-07-05T12:17:59.993Z,178.8
2023-07-05T12:19:00.020Z,179.1
2023-07-05T12:20:00.007Z,177.6
2023-07-05T12:21:00.058Z,175.3
2023-07-05T12:22:00.071Z,177.7
2023-07-05T12:23:00.146Z,177.9
2023-07-05T12:24:00.127Z,178.3
2023-07-05T12:24:59.107Z,178.2
2023-07-05T12:25:59.146Z,177.5
2023-07-05T12:26:59.132Z,177.7
2023-07-05T12:27:59.140Z,179.7
2023-07-05T12:28:59.160Z,180.5
2023-07-05T12:29:59.189Z,180.8
2023-07-05T12:30:59.286Z,181.2
2023-07-05T12:31:59.194Z,183.1
2023-07-05T12:32:59.252Z,182.6
2023-07-05T12:33:59.203Z,181.9
2023-07-05T12:34:59.208Z,181.5
2023-07-05T12:35:59.225Z,181.4
2023-07-05T12:36:59.252Z,180.9
2023-07-05T12:37:59.277Z,181.3
2023-07-05T12:38:59.321Z,179.4
2023-07-05T12:39:59.349Z,180.3
2023-07-05T12:40:59.370Z,179.8
2023-07-05T12:41:59.390Z,178.7
2023-07-05T12:42:59.409Z,179
2023-07-05T12:43:59.427Z,179.5
2023-07-05T12:44:59.451Z,178.6
2023-07-05T12:45:59.496Z,178.1
2023-07-05T12:46:59.613Z,177.4
2023-07-05T12:47:59.626Z,176.6
2023-07-05T12:48:59.537Z,175.6
2023-07-05T12:49:59.551Z,173.9
2023-07-05T12:50:59.580Z,171.4
2023-07-05T12:51:59.618Z,167.8
2023-07-05T12:52:59.610Z,165.5
2023-07-05T12:53:59.607Z,164.6
2023-07-05T12:54:59.621Z,163
2023-07-05T12:55:59.624Z,163.4
2023-07-05T12:56:59.630Z,163.6